Time;durP1;ratioP1;P1;durP2;ratioP2;P2;SDS_P1;SDS_P2;PMS_P1;PMS_P2;Temp;Humidity;BMP_temperature;BMP_pressure;BME280_temperature;BME280_humidity;BME280_pressure;Samples;Min_cycle;Max_cycle;Signal;HPM_P1;HPM_P2
2023/09/12 00:01:08;;;;;;;;;;;;;;;13.45;100.00;99920.72;5093922;28;621;-62
2023/09/12 00:03:35;;;;;;;;;;;;;;;13.44;100.00;99913.63;5093883;28;1881;-62
2023/09/12 00:06:03;;;;;;;;;;;;;;;13.44;100.00;99915.56;5093784;28;847;-62
2023/09/12 00:08:30;;;;;;;;;;;;;;;13.40;100.00;99907.31;5093850;28;859;-61
2023/09/12 00:11:06;;;;;;;;;;;;;;;13.41;100.00;99916.44;5093688;28;874;-62
2023/09/12 00:19:38;;;;;;;;;;;;;;;13.36;100.00;99912.13;5113958;28;827;-62
2023/09/12 00:22:05;;;;;;;;;;;;;;;13.37;100.00;99896.25;5113834;27;1977;-62
2023/09/12 00:24:32;;;;;;;;;;;;;;;13.41;100.00;99902.53;5113888;28;847;-62
2023/09/12 00:26:59;;;;;;;;;;;;;;;13.48;100.00;99902.44;5114220;28;890;-62
2023/09/12 00:32:28;;;;;;;;;;;;;;;13.48;100.00;99908.78;5113924;28;630;-62
2023/09/12 00:37:58;;;;;;;;;;;;;;;13.36;100.00;99903.81;5113602;28;861;-62
2023/09/12 00:40:26;;;;;;;;;;;;;;;13.32;100.00;99905.84;5113584;28;886;-62
2023/09/12 00:42:52;;;;;;;;;;;;;;;13.31;100.00;99909.81;5113398;28;1889;-62
2023/09/12 00:45:19;;;;;;;;;;;;;;;13.29;100.00;99912.22;5113276;28;886;-62
2023/09/12 00:59:57;;;;;;;;;;;;;;;13.21;100.00;99907.97;5113227;28;701;-63
2023/09/12 01:02:24;;;;;;;;;;;;;;;13.19;100.00;99908.38;5113097;28;1977;-62
2023/09/12 01:04:51;;;;;;;;;;;;;;;13.19;100.00;99907.59;5113057;28;807;-63
2023/09/12 01:10:21;;;;;;;;;;;;;;;13.15;100.00;99901.31;5113048;28;645;-62
2023/09/12 01:12:47;;;;;;;;;;;;;;;13.15;100.00;99899.31;5112789;28;1341;-62
2023/09/12 01:15:14;;;;;;;;;;;;;;;13.17;100.00;99899.69;5113307;28;815;-63
2023/09/12 01:24:05;;;;;;;;;;;;;;;13.08;100.00;99891.09;5112826;28;802;-63
2023/09/12 01:32:38;;;;;;;;;;;;;;;13.10;100.00;99901.75;5112607;28;875;-62
2023/09/12 01:35:06;;;;;;;;;;;;;;;13.08;100.00;99893.88;5112565;28;815;-62
2023/09/12 01:40:42;;;;;;;;;;;;;;;13.04;100.00;99902.25;5112495;28;767;-62
2023/09/12 01:43:09;;;;;;;;;;;;;;;13.02;100.00;99898.31;5112459;28;1952;-62
2023/09/12 01:45:37;;;;;;;;;;;;;;;13.02;100.00;99904.66;5112583;28;815;-62
2023/09/12 01:54:10;;;;;;;;;;;;;;;12.96;100.00;99899.97;5112362;28;661;-62
2023/09/12 01:56:37;;;;;;;;;;;;;;;12.96;100.00;99902.75;5112388;28;886;-63
2023/09/12 01:59:04;;;;;;;;;;;;;;;12.94;100.00;99902.38;5110769;28;1423;-62
2023/09/12 02:01:31;;;;;;;;;;;;;;;12.94;100.00;99902.38;5112235;28;1918;-63
2023/09/12 02:03:58;;;;;;;;;;;;;;;12.92;100.00;99902.78;5112197;28;819;-63
2023/09/12 02:06:25;;;;;;;;;;;;;;;12.88;100.00;99899.28;5112225;28;815;-62
2023/09/12 02:08:52;;;;;;;;;;;;;;;12.84;100.00;99901.31;5112204;28;823;-62
2023/09/12 02:11:19;;;;;;;;;;;;;;;12.82;100.00;99898.16;5110828;28;932;-62
2023/09/12 02:13:46;;;;;;;;;;;;;;;12.82;100.00;99889.84;5111944;28;1171;-63
2023/09/12 02:16:13;;;;;;;;;;;;;;;12.83;100.00;99894.19;5112052;28;898;-62
2023/09/12 02:18:40;;;;;;;;;;;;;;;12.82;100.00;99895.38;5112084;28;827;-63
2023/09/12 02:24:09;;;;;;;;;;;;;;;12.80;100.00;99897.78;5112003;28;944;-63
2023/09/12 02:26:36;;;;;;;;;;;;;;;12.80;100.00;99900.56;5112033;28;1070;-63
2023/09/12 02:29:06;;;;;;;;;;;;;;;12.77;100.00;99902.19;5112090;28;835;-63
2023/09/12 02:31:32;;;;;;;;;;;;;;;12.75;100.00;99901.03;5112035;28;823;-62
2023/09/12 02:33:59;;;;;;;;;;;;;;;12.73;100.00;99893.13;5112270;28;874;-62
2023/09/12 02:36:26;;;;;;;;;;;;;;;12.74;100.00;99896.66;5111916;28;834;-62
2023/09/12 02:44:58;;;;;;;;;;;;;;;12.71;100.00;99897.50;5111842;28;829;-63
2023/09/12 02:47:25;;;;;;;;;;;;;;;12.71;100.00;99891.97;5111833;28;941;-63
2023/09/12 02:49:52;;;;;;;;;;;;;;;12.72;100.00;99894.34;5111707;28;998;-63
2023/09/12 02:52:18;;;;;;;;;;;;;;;12.72;100.00;99893.56;5111725;28;825;-63
2023/09/12 02:54:46;;;;;;;;;;;;;;;12.73;100.00;99897.88;5111802;28;807;-64
2023/09/12 02:57:13;;;;;;;;;;;;;;;12.71;100.00;99901.06;5111743;28;968;-63
2023/09/12 02:59:40;;;;;;;;;;;;;;;12.71;100.00;99901.06;5110487;28;1617;-63
2023/09/12 03:02:06;;;;;;;;;;;;;;;12.69;100.00;99899.91;5111857;28;1952;-63
2023/09/12 03:04:35;;;;;;;;;;;;;;;12.68;100.00;99906.66;5111861;28;819;-63
2023/09/12 03:07:02;;;;;;;;;;;;;;;12.67;100.00;99903.09;5111881;28;894;-63
2023/09/12 03:09:29;;;;;;;;;;;;;;;12.70;100.00;99907.03;5112585;28;846;-63
2023/09/12 03:11:56;;;;;;;;;;;;;;;12.71;100.00;99912.16;5115259;28;1434;-63
2023/09/12 03:14:22;;;;;;;;;;;;;;;12.70;100.00;99912.59;5115228;28;846;-63
2023/09/12 03:22:54;;;;;;;;;;;;;;;12.67;100.00;99919.72;5115191;28;1977;-63
2023/09/12 03:28:23;;;;;;;;;;;;;;;12.62;100.00;99925.75;5115003;28;740;-63
2023/09/12 03:30:51;;;;;;;;;;;;;;;12.62;100.00;99922.97;5115240;28;848;-63
2023/09/12 03:36:20;;;;;;;;;;;;;;;12.58;100.00;99931.31;5114887;28;644;-64
2023/09/12 03:38:47;;;;;;;;;;;;;;;12.58;100.00;99934.09;5114748;28;862;-63
2023/09/12 03:41:14;;;;;;;;;;;;;;;12.63;100.00;99938.41;5114790;28;822;-63
2023/09/12 03:43:41;;;;;;;;;;;;;;;12.67;100.00;99939.13;5114570;28;1945;-63
2023/09/12 03:46:08;;;;;;;;;;;;;;;12.70;100.00;99934.78;5114674;28;823;-63
2023/09/12 03:48:36;;;;;;;;;;;;;;;12.71;100.00;99937.13;5114784;28;867;-63
2023/09/12 03:54:06;;;;;;;;;;;;;;;12.72;100.00;99937.94;5114606;28;819;-63
2023/09/12 03:56:33;;;;;;;;;;;;;;;12.75;100.00;99948.97;5114429;28;890;-63
2023/09/12 03:59:00;;;;;;;;;;;;;;;12.75;100.00;99937.88;5114587;28;827;-63
2023/09/12 04:01:27;;;;;;;;;;;;;;;12.76;100.00;99942.22;5114404;28;905;-63
2023/09/12 04:03:54;;;;;;;;;;;;;;;12.80;100.00;99940.19;5114349;28;875;-64
2023/09/12 04:06:21;;;;;;;;;;;;;;;12.83;100.00;99936.59;5114308;28;942;-63
2023/09/12 04:08:47;;;;;;;;;;;;;;;12.86;100.00;99944.06;5114350;28;835;-63
2023/09/12 04:11:14;;;;;;;;;;;;;;;12.89;100.00;99936.91;5114302;28;920;-63
2023/09/12 04:13:41;;;;;;;;;;;;;;;12.93;100.00;99942.41;5114173;28;1558;-63
2023/09/12 04:16:07;;;;;;;;;;;;;;;12.96;100.00;99934.06;5095894;28;1361;-63
2023/09/12 04:18:34;;;;;;;;;;;;;;;13.02;100.00;99943.50;5095819;28;1501;-63
2023/09/12 04:21:01;;;;;;;;;;;;;;;13.10;100.00;99946.16;5114014;28;856;-63
2023/09/12 04:23:28;;;;;;;;;;;;;;;13.17;100.00;99946.09;5114150;28;1913;-63
2023/09/12 04:25:55;;;;;;;;;;;;;;;13.25;100.00;99947.56;5114056;28;827;-63
2023/09/12 04:28:21;;;;;;;;;;;;;;;13.32;100.00;99946.72;5113938;28;880;-63
2023/09/12 04:30:48;;;;;;;;;;;;;;;13.39;100.00;99949.38;5113898;28;1193;-63
2023/09/12 04:33:13;;;;;;;;;;;;;;;13.47;100.00;99948.06;5113829;28;792;-63
2023/09/12 04:35:40;;;;;;;;;;;;;;;13.55;100.00;99943.19;5113710;28;842;-63
2023/09/12 04:38:08;;;;;;;;;;;;;;;13.64;100.00;99944.25;5113729;28;867;-63
2023/09/12 04:43:37;;;;;;;;;;;;;;;13.93;100.00;99948.56;5113459;28;1881;-63
2023/09/12 04:49:07;;;;;;;;;;;;;;;14.43;100.00;99956.81;5113529;28;607;-63
2023/09/12 04:51:34;;;;;;;;;;;;;;;14.66;100.00;99946.91;5113340;28;871;-63
2023/09/12 04:57:04;;;;;;;;;;;;;;;14.77;100.00;99944.69;5113448;28;843;-63
2023/09/12 04:59:31;;;;;;;;;;;;;;;14.82;100.00;99946.97;5113562;28;870;-63
2023/09/12 05:01:57;;;;;;;;;;;;;;;14.84;100.00;99944.56;5113468;28;1890;-64
2023/09/12 05:04:24;;;;;;;;;;;;;;;14.88;100.00;99950.06;5113509;28;1283;-63
2023/09/12 05:06:51;;;;;;;;;;;;;;;15.00;100.00;99951.38;5113098;28;1186;-63
2023/09/12 05:09:18;;;;;;;;;;;;;;;15.11;100.00;99946.41;5113133;28;843;-64
2023/09/12 05:11:45;;;;;;;;;;;;;;;15.23;100.00;99947.72;5113172;28;1217;-64
2023/09/12 05:14:11;;;;;;;;;;;;;;;15.38;100.00;99951.75;5094653;28;1179;-65
2023/09/12 05:16:37;;;;;;;;;;;;;;;15.45;100.00;99950.84;5112860;28;874;-63
2023/09/12 05:19:04;;;;;;;;;;;;;;;15.49;100.00;99948.72;5112814;28;836;-63
2023/09/12 05:21:31;;;;;;;;;;;;;;;15.60;100.00;99946.50;5112768;28;1910;-63
2023/09/12 05:23:57;;;;;;;;;;;;;;;15.74;100.00;99953.00;5112688;28;893;-64
2023/09/12 05:26:24;;;;;;;;;;;;;;;15.82;100.00;99955.16;5112809;28;830;-63
2023/09/12 05:28:51;;;;;;;;;;;;;;;15.95;100.00;99954.47;5112683;28;863;-64
2023/09/12 05:31:17;;;;;;;;;;;;;;;16.07;100.00;99962.16;5112684;28;847;-63
2023/09/12 05:33:43;;;;;;;;;;;;;;;16.26;100.00;99954.91;5112176;28;931;-63
2023/09/12 05:36:10;;;;;;;;;;;;;;;16.41;100.00;99955.28;5112585;28;852;-63
2023/09/12 05:41:39;;;;;;;;;;;;;;;16.74;100.00;99959.56;5112434;28;1897;-63
2023/09/12 05:44:07;;;;;;;;;;;;;;;16.91;100.00;99965.13;5112472;28;873;-63
2023/09/12 05:46:32;;;;;;;;;;;;;;;17.18;100.00;99966.78;5112331;28;816;-63
2023/09/12 05:48:59;;;;;;;;;;;;;;;17.50;100.00;99957.41;5112451;28;851;-63
2023/09/12 05:51:26;;;;;;;;;;;;;;;17.92;100.00;99958.09;5112321;28;859;-63
2023/09/12 05:56:55;;;;;;;;;;;;;;;18.56;100.00;99957.94;5112620;28;828;-63
2023/09/12 06:02:24;;;;;;;;;;;;;;;18.83;100.00;99956.59;5112271;28;1885;-63
2023/09/12 06:04:51;;;;;;;;;;;;;;;18.86;100.00;99968.91;5112138;28;888;-64
2023/09/12 06:10:21;;;;;;;;;;;;;;;18.89;100.00;99957.59;5112216;28;623;-64
2023/09/12 06:13:07;;;;;;;;;;;;;;;18.92;100.00;99953.88;5112006;28;1290;-64
2023/09/12 06:18:37;;;;;;;;;;;;;;;19.24;100.00;99971.50;5112602;28;900;-64
2023/09/12 06:21:08;;;;;;;;;;;;;;;19.34;100.00;99970.31;5093982;28;1218;-64
2023/09/12 06:23:35;;;;;;;;;;;;;;;19.52;100.00;99972.44;5093689;28;1905;-65
2023/09/12 06:26:01;;;;;;;;;;;;;;;19.81;100.00;99970.56;5112158;28;856;-65
2023/09/12 06:28:30;;;;;;;;;;;;;;;20.01;100.00;99984.94;5112312;28;819;-65
2023/09/12 06:34:00;;;;;;;;;;;;;;;21.18;100.00;99983.13;5112045;28;1123;-64
2023/09/12 06:36:30;;;;;;;;;;;;;;;21.69;100.00;99988.00;5112211;28;845;-66
2023/09/12 06:38:59;;;;;;;;;;;;;;;22.01;100.00;99994.88;5112028;28;816;-65
2023/09/12 07:12:57;;;;;;;;;;;;;;;24.89;100.00;100004.69;5644780;22;1652;-56
2023/09/12 07:15:24;;;;;;;;;;;;;;;25.06;100.00;100009.22;5014966;28;919;-56
2023/09/12 07:17:51;;;;;;;;;;;;;;;25.21;100.00;100005.56;5014931;28;839;-56
2023/09/12 07:20:19;;;;;;;;;;;;;;;25.51;100.00;100011.72;5014773;28;840;-56
2023/09/12 07:22:47;;;;;;;;;;;;;;;25.32;100.00;100005.66;5014782;28;1906;-56
2023/09/12 07:25:18;;;;;;;;;;;;;;;25.24;100.00;100018.69;5014758;28;824;-56
2023/09/12 07:27:46;;;;;;;;;;;;;;;25.52;100.00;100006.84;5014862;28;863;-56
2023/09/12 07:30:13;;;;;;;;;;;;;;;25.85;99.58;100009.94;5014850;28;1051;-56
2023/09/12 07:32:40;;;;;;;;;;;;;;;26.18;98.35;100007.84;5014845;28;878;-56
2023/09/12 07:35:07;;;;;;;;;;;;;;;26.07;98.05;100008.56;5014739;28;884;-56
2023/09/12 07:37:34;;;;;;;;;;;;;;;26.46;96.09;100011.63;5014695;28;903;-56
2023/09/12 07:40:01;;;;;;;;;;;;;;;26.53;94.38;100016.03;5014845;28;844;-56
2023/09/12 07:42:28;;;;;;;;;;;;;;;26.66;94.62;100009.91;5014335;28;1945;-56
2023/09/12 07:44:54;;;;;;;;;;;;;;;27.17;87.72;100007.97;5014902;28;868;-56
2023/09/12 07:47:21;;;;;;;;;;;;;;;27.59;85.65;100003.41;5014555;28;824;-57
2023/09/12 07:49:53;;;;;;;;;;;;;;;27.96;82.93;100004.41;5014460;28;850;-57
2023/09/12 07:52:19;;;;;;;;;;;;;;;28.19;77.28;100011.59;5014319;28;888;-56
2023/09/12 07:54:46;;;;;;;;;;;;;;;28.24;72.10;100010.03;5014199;28;870;-56
2023/09/12 07:57:12;;;;;;;;;;;;;;;28.14;71.08;100005.91;5013974;28;821;-57
2023/09/12 07:59:39;;;;;;;;;;;;;;;28.44;69.30;100011.75;5013909;28;879;-57
2023/09/12 08:02:05;;;;;;;;;;;;;;;28.73;68.26;100001.84;5013957;28;1943;-57
2023/09/12 08:04:31;;;;;;;;;;;;;;;28.79;67.46;99999.75;5012716;28;896;-57
2023/09/12 08:07:00;;;;;;;;;;;;;;;28.82;67.40;99998.69;5014140;28;855;-57
2023/09/12 08:09:46;;;;;;;;;;;;;;;28.83;67.28;100002.34;5014249;28;891;-57
2023/09/12 08:12:13;;;;;;;;;;;;;;;28.69;67.72;100002.13;5014041;28;1572;-57
2023/09/12 08:14:39;;;;;;;;;;;;;;;28.65;68.03;99998.00;5031221;28;1189;-57
2023/09/12 08:17:06;;;;;;;;;;;;;;;28.88;68.95;100004.38;5033789;28;860;-57
2023/09/12 08:19:32;;;;;;;;;;;;;;;28.95;66.60;100005.88;5033698;28;897;-58
2023/09/12 08:21:59;;;;;;;;;;;;;;;28.73;66.58;100004.69;5033570;28;1902;-58
2023/09/12 08:24:26;;;;;;;;;;;;;;;28.65;65.98;100003.69;5033439;28;847;-58
2023/09/12 08:26:53;;;;;;;;;;;;;;;29.00;66.97;100002.25;5033448;28;848;-57
2023/09/12 08:29:19;;;;;;;;;;;;;;;29.29;66.05;100003.59;5033330;28;1336;-57
2023/09/12 08:31:47;;;;;;;;;;;;;;;29.44;65.24;100006.84;5033305;28;879;-57
2023/09/12 08:34:13;;;;;;;;;;;;;;;29.16;64.37;100006.28;5033185;28;1331;-57
2023/09/12 08:36:40;;;;;;;;;;;;;;;29.06;65.22;100006.59;5032014;28;919;-57
2023/09/12 08:39:11;;;;;;;;;;;;;;;29.02;64.37;99999.59;5033170;28;848;-57
2023/09/12 08:41:39;;;;;;;;;;;;;;;28.79;63.71;100002.59;5033012;28;887;-57
2023/09/12 08:44:07;;;;;;;;;;;;;;;28.57;64.07;100000.66;5033023;28;958;-57
2023/09/12 08:46:33;;;;;;;;;;;;;;;28.86;63.36;100002.03;5033069;28;828;-57
2023/09/12 08:49:00;;;;;;;;;;;;;;;29.24;62.57;99999.50;5033000;28;876;-57
2023/09/12 08:51:28;;;;;;;;;;;;;;;29.48;57.39;100000.88;5051235;28;881;-58
2023/09/12 08:53:54;;;;;;;;;;;;;;;29.37;57.47;100000.97;5052431;28;898;-57
2023/09/12 08:56:21;;;;;;;;;;;;;;;29.44;56.66;99998.28;5052567;28;894;-57
2023/09/12 08:58:48;;;;;;;;;;;;;;;29.32;54.75;100002.56;5052566;28;878;-56
2023/09/12 09:01:16;;;;;;;;;;;;;;;29.33;53.80;99992.69;5052581;28;819;-56
2023/09/12 09:03:44;;;;;;;;;;;;;;;29.26;53.31;99991.19;5052362;28;1886;-55
2023/09/12 09:06:11;;;;;;;;;;;;;;;29.24;53.71;99987.34;5052659;28;831;-56
2023/09/12 09:08:39;;;;;;;;;;;;;;;29.44;54.39;99986.91;5051844;28;847;-56
2023/09/12 09:11:06;;;;;;;;;;;;;;;29.26;54.32;99984.75;5052421;28;879;-56
2023/09/12 09:13:33;;;;;;;;;;;;;;;29.32;54.07;99991.16;5052217;28;1234;-56
2023/09/12 09:16:13;;;;;;;;;;;;;;;29.07;54.85;99984.59;5052393;28;820;-56
2023/09/12 09:18:52;;;;;;;;;;;;;;;29.08;55.29;99984.06;5052623;28;820;-56
2023/09/12 09:21:20;;;;;;;;;;;;;;;28.98;55.85;99976.38;5051021;28;1184;-56
2023/09/12 09:23:47;;;;;;;;;;;;;;;28.81;55.93;99979.31;5052211;28;1965;-56
2023/09/12 09:26:14;;;;;;;;;;;;;;;28.69;55.70;99981.44;5052224;28;872;-56
2023/09/12 09:28:41;;;;;;;;;;;;;;;28.63;55.11;99990.00;5052346;28;855;-56
2023/09/12 09:31:12;;;;;;;;;;;;;;;28.68;55.40;99975.00;5052442;28;863;-56
2023/09/12 09:33:40;;;;;;;;;;;;;;;28.94;55.43;99978.75;5052064;28;835;-56
2023/09/12 09:36:07;;;;;;;;;;;;;;;29.03;55.03;99979.16;5052435;28;835;-56
2023/09/12 09:38:37;;;;;;;;;;;;;;;29.13;55.19;99976.81;5052012;28;866;-56
2023/09/12 09:41:05;;;;;;;;;;;;;;;29.09;54.45;99968.56;5051955;28;910;-56
2023/09/12 09:43:32;;;;;;;;;;;;;;;28.83;54.75;99976.72;5052251;28;1881;-56
2023/09/12 09:45:59;;;;;;;;;;;;;;;28.79;55.00;99974.16;5052223;28;972;-56
2023/09/12 09:48:27;;;;;;;;;;;;;;;28.86;54.63;99973.59;5051999;28;1190;-56
2023/09/12 09:50:53;;;;;;;;;;;;;;;28.91;53.97;99969.97;5052454;28;804;-56
2023/09/12 09:53:32;;;;;;;;;;;;;;;29.25;54.08;99968.97;5033980;28;1189;-56
2023/09/12 09:56:10;;;;;;;;;;;;;;;29.42;52.61;99963.91;5051554;28;848;-56
2023/09/12 09:58:45;;;;;;;;;;;;;;;29.47;52.78;99963.09;5051491;28;939;-56
2023/09/12 10:01:14;;;;;;;;;;;;;;;29.59;51.86;99965.81;5051764;28;820;-57
2023/09/12 10:03:42;;;;;;;;;;;;;;;29.09;52.49;99962.88;5051707;28;1935;-57
2023/09/12 10:06:10;;;;;;;;;;;;;;;28.53;53.38;99968.88;5051929;28;891;-57
2023/09/12 10:08:38;;;;;;;;;;;;;;;28.84;54.51;99956.28;5051601;28;836;-57
2023/09/12 10:11:05;;;;;;;;;;;;;;;29.67;52.47;99964.72;5051470;28;887;-57
2023/09/12 10:13:33;;;;;;;;;;;;;;;30.35;50.29;99952.63;5051413;28;1221;-57
2023/09/12 10:16:04;;;;;;;;;;;;;;;30.72;49.77;99951.84;5033844;28;959;-57
2023/09/12 10:18:35;;;;;;;;;;;;;;;30.82;48.31;99951.47;5052617;28;986;-56
2023/09/12 10:21:11;;;;;;;;;;;;;;;30.70;48.80;99950.84;5055781;28;882;-56
2023/09/12 10:23:42;;;;;;;;;;;;;;;30.87;48.22;99957.13;5055416;28;1969;-56
2023/09/12 10:26:10;;;;;;;;;;;;;;;30.77;47.58;99963.72;5055567;28;919;-56
2023/09/12 10:28:40;;;;;;;;;;;;;;;30.66;46.84;99956.09;5055577;28;1149;-56
2023/09/12 10:31:07;;;;;;;;;;;;;;;30.69;46.78;99950.09;5055504;28;871;-56
2023/09/12 10:33:34;;;;;;;;;;;;;;;30.42;47.04;99948.38;5055439;28;844;-56
2023/09/12 10:36:03;;;;;;;;;;;;;;;30.41;46.09;99944.00;5037687;28;848;-57
2023/09/12 10:38:32;;;;;;;;;;;;;;;30.36;46.98;99936.28;5055468;28;868;-56
2023/09/12 10:41:01;;;;;;;;;;;;;;;30.71;47.66;99944.63;5055194;28;913;-56
2023/09/12 10:43:28;;;;;;;;;;;;;;;30.99;46.66;99942.69;5055266;28;1894;-56
2023/09/12 10:45:56;;;;;;;;;;;;;;;31.30;46.70;99939.06;5055169;28;847;-56
2023/09/12 10:48:23;;;;;;;;;;;;;;;31.23;46.29;99939.69;5055247;28;825;-57
2023/09/12 10:50:50;;;;;;;;;;;;;;;31.11;46.54;99936.28;5055180;28;916;-57
2023/09/12 10:53:18;;;;;;;;;;;;;;;31.11;46.40;99927.72;5055137;28;828;-57
2023/09/12 10:55:58;;;;;;;;;;;;;;;30.77;46.66;99938.84;5055072;28;864;-57
2023/09/12 10:58:25;;;;;;;;;;;;;;;30.83;46.35;99930.19;5055174;28;929;-58
2023/09/12 11:01:12;;;;;;;;;;;;;;;31.00;46.13;99927.09;5055035;28;843;-57
2023/09/12 11:03:40;;;;;;;;;;;;;;;30.66;46.74;99922.66;5054785;28;1945;-58
2023/09/12 11:06:19;;;;;;;;;;;;;;;29.97;47.43;99926.13;5054748;28;820;-57
2023/09/12 11:09:07;;;;;;;;;;;;;;;29.31;48.75;99921.31;5054647;28;976;-57
2023/09/12 11:11:34;;;;;;;;;;;;;;;29.31;50.61;99916.38;5054537;28;1047;-57
2023/09/12 11:14:04;;;;;;;;;;;;;;;29.84;49.69;99916.16;5054375;28;1331;-57
2023/09/12 11:16:31;;;;;;;;;;;;;;;29.75;49.89;99910.81;5054420;28;834;-57
2023/09/12 11:19:18;;;;;;;;;;;;;;;30.57;48.84;99911.63;5054469;28;956;-57
2023/09/12 11:21:49;;;;;;;;;;;;;;;31.26;47.70;99909.28;5054288;28;835;-58
2023/09/12 11:24:16;;;;;;;;;;;;;;;32.24;45.92;99897.09;5054540;28;870;-57
2023/09/12 11:27:00;;;;;;;;;;;;;;;31.99;45.18;99901.53;5054455;28;852;-57
2023/09/12 11:29:34;;;;;;;;;;;;;;;31.08;46.70;99905.19;5053062;28;1365;-57
2023/09/12 11:32:03;;;;;;;;;;;;;;;30.73;48.23;99896.34;5053947;28;851;-58
2023/09/12 11:34:36;;;;;;;;;;;;;;;30.41;48.71;99901.25;5053511;28;1378;-57
2023/09/12 11:37:04;;;;;;;;;;;;;;;29.78;49.60;99900.44;5054309;28;820;-57
2023/09/12 11:39:36;;;;;;;;;;;;;;;29.44;50.27;99895.03;5054501;28;855;-57
2023/09/12 11:42:03;;;;;;;;;;;;;;;29.09;50.49;99891.72;5054171;28;1882;-57
2023/09/12 11:44:31;;;;;;;;;;;;;;;28.80;51.63;99893.22;5054175;28;828;-58
2023/09/12 11:47:05;;;;;;;;;;;;;;;28.77;52.70;99893.53;5054056;28;804;-57
2023/09/12 11:49:38;;;;;;;;;;;;;;;29.62;51.67;99893.59;5054039;28;1305;-58
2023/09/12 11:52:14;;;;;;;;;;;;;;;30.39;49.88;99892.47;5054039;28;828;-57
2023/09/12 11:54:41;;;;;;;;;;;;;;;30.97;48.46;99896.81;5054004;28;816;-57
2023/09/12 11:57:10;;;;;;;;;;;;;;;31.24;47.35;99895.56;5052682;28;1235;-59
2023/09/12 11:59:40;;;;;;;;;;;;;;;31.48;46.67;99885.31;5053835;28;816;-57
2023/09/12 12:02:10;;;;;;;;;;;;;;;31.80;46.76;99887.31;5053771;28;1937;-58
2023/09/12 12:04:37;;;;;;;;;;;;;;;31.19;47.07;99892.81;5053919;28;816;-57
2023/09/12 12:07:04;;;;;;;;;;;;;;;30.65;48.23;99886.88;5053846;28;863;-58
2023/09/12 12:09:32;;;;;;;;;;;;;;;30.61;48.32;99885.66;5053782;28;821;-57
2023/09/12 12:12:09;;;;;;;;;;;;;;;30.80;48.42;99879.94;5053876;28;910;-58
2023/09/12 12:14:36;;;;;;;;;;;;;;;30.61;49.87;99879.97;5053415;28;1201;-58
2023/09/12 12:17:09;;;;;;;;;;;;;;;30.26;49.77;99893.88;5052271;28;666;-58
2023/09/12 12:19:37;;;;;;;;;;;;;;;29.93;50.65;99886.53;5053422;28;828;-58
2023/09/12 12:22:07;;;;;;;;;;;;;;;30.34;50.39;99888.34;5053600;28;1918;-58
2023/09/12 12:24:38;;;;;;;;;;;;;;;30.50;50.02;99884.50;5053623;28;824;-58
2023/09/12 12:27:07;;;;;;;;;;;;;;;30.83;49.21;99890.25;5053184;28;938;-58
2023/09/12 12:29:34;;;;;;;;;;;;;;;30.95;48.74;99885.94;5053343;28;856;-58
2023/09/12 12:32:02;;;;;;;;;;;;;;;30.98;48.77;99887.69;5053162;28;894;-58
2023/09/12 12:34:29;;;;;;;;;;;;;;;31.37;48.27;99880.56;5053465;28;824;-58
2023/09/12 12:36:56;;;;;;;;;;;;;;;31.61;46.90;99884.56;5053014;28;875;-57
2023/09/12 12:39:23;;;;;;;;;;;;;;;31.63;46.87;99882.69;5053159;28;804;-58
2023/09/12 12:41:54;;;;;;;;;;;;;;;31.48;47.32;99876.75;5052008;28;1931;-57
2023/09/12 12:44:22;;;;;;;;;;;;;;;31.49;47.61;99878.28;5052945;28;883;-58
2023/09/12 12:46:52;;;;;;;;;;;;;;;31.50;48.01;99877.75;5052970;28;840;-57
2023/09/12 12:49:19;;;;;;;;;;;;;;;31.36;47.42;99879.00;5053149;28;797;-58
2023/09/12 12:51:46;;;;;;;;;;;;;;;31.00;48.71;99892.84;5052858;28;952;-57
2023/09/12 12:54:14;;;;;;;;;;;;;;;30.72;49.05;99886.25;5052785;28;808;-58
2023/09/12 12:56:43;;;;;;;;;;;;;;;30.53;49.67;99886.28;5052764;28;879;-58
2023/09/12 12:59:10;;;;;;;;;;;;;;;30.57;49.49;99879.50;5052647;28;879;-58
2023/09/12 13:01:38;;;;;;;;;;;;;;;30.52;49.95;99889.69;5052869;28;875;-58
2023/09/12 13:04:07;;;;;;;;;;;;;;;30.16;49.94;99891.94;5052519;28;1898;-58
2023/09/12 13:06:36;;;;;;;;;;;;;;;30.18;50.43;99880.78;5052656;28;861;-58
2023/09/12 13:09:05;;;;;;;;;;;;;;;30.32;50.57;99899.53;5052592;28;883;-58
2023/09/12 13:11:35;;;;;;;;;;;;;;;30.47;49.80;99890.50;5052555;28;1005;-58
2023/09/12 13:14:08;;;;;;;;;;;;;;;30.48;49.52;99897.75;5052249;28;1443;-58
2023/09/12 13:16:35;;;;;;;;;;;;;;;30.71;49.12;99893.28;5035565;28;820;-58
2023/09/12 13:19:03;;;;;;;;;;;;;;;30.84;48.72;99889.72;5052412;28;899;-58
2023/09/12 13:21:32;;;;;;;;;;;;;;;30.88;49.00;99889.44;5052357;28;851;-58
2023/09/12 13:23:59;;;;;;;;;;;;;;;30.58;49.37;99887.50;5052493;28;1906;-58
2023/09/12 13:26:26;;;;;;;;;;;;;;;30.38;50.34;99885.97;5052217;28;887;-58
2023/09/12 13:28:53;;;;;;;;;;;;;;;30.01;50.80;99889.53;5052363;28;922;-58
2023/09/12 13:31:20;;;;;;;;;;;;;;;29.49;51.77;99888.53;5052368;28;847;-58
2023/09/12 13:33:47;;;;;;;;;;;;;;;29.35;52.83;99884.78;5052193;28;974;-58
2023/09/12 13:36:14;;;;;;;;;;;;;;;29.61;52.40;99881.41;5051830;28;880;-58
2023/09/12 13:38:41;;;;;;;;;;;;;;;29.68;52.11;99888.56;5052061;28;836;-58
2023/09/12 13:41:08;;;;;;;;;;;;;;;29.75;51.89;99885.19;5051978;28;883;-58
2023/09/12 13:43:35;;;;;;;;;;;;;;;29.49;52.34;99888.53;5051825;28;1953;-58
2023/09/12 13:46:02;;;;;;;;;;;;;;;29.11;53.15;99891.97;5051962;28;824;-58
2023/09/12 13:48:29;;;;;;;;;;;;;;;28.66;54.11;99891.53;5051907;28;1072;-57
2023/09/12 13:50:56;;;;;;;;;;;;;;;28.34;55.28;99899.69;5052017;28;914;-58
2023/09/12 13:53:22;;;;;;;;;;;;;;;28.13;56.24;99891.50;5051510;28;884;-57
2023/09/12 13:55:49;;;;;;;;;;;;;;;27.88;56.42;99901.94;5051789;28;899;-57
2023/09/12 13:58:16;;;;;;;;;;;;;;;27.66;57.13;99903.50;5051713;28;899;-58
2023/09/12 14:00:43;;;;;;;;;;;;;;;27.37;57.93;99895.56;5051753;28;883;-57
2023/09/12 14:03:09;;;;;;;;;;;;;;;27.27;58.70;99890.16;5051550;28;1878;-58
2023/09/12 14:05:37;;;;;;;;;;;;;;;27.25;58.88;99904.09;5050401;28;1258;-57
2023/09/12 14:08:05;;;;;;;;;;;;;;;27.34;58.76;99890.94;5051540;28;863;-58
2023/09/12 14:10:32;;;;;;;;;;;;;;;27.46;58.90;99895.28;5051893;28;882;-58
2023/09/12 14:12:59;;;;;;;;;;;;;;;27.49;58.19;99882.91;5051737;28;1196;-57
2023/09/12 14:15:27;;;;;;;;;;;;;;;27.39;57.76;99890.91;5051531;28;1165;-58
2023/09/12 14:17:55;;;;;;;;;;;;;;;27.11;58.17;99884.47;5051540;28;835;-57
2023/09/12 14:20:22;;;;;;;;;;;;;;;26.75;59.34;99892.69;5051598;28;875;-57
2023/09/12 14:22:50;;;;;;;;;;;;;;;26.84;59.92;99884.72;5050165;28;1922;-57
2023/09/12 14:25:16;;;;;;;;;;;;;;;26.98;58.68;99884.97;5051808;28;1254;-57
2023/09/12 14:27:44;;;;;;;;;;;;;;;26.83;58.44;99891.66;5051422;28;828;-58
2023/09/12 14:30:13;;;;;;;;;;;;;;;26.62;58.69;99899.59;5051545;28;796;-57
2023/09/12 14:32:40;;;;;;;;;;;;;;;26.50;59.29;99898.03;5051557;28;891;-58
2023/09/12 14:35:08;;;;;;;;;;;;;;;26.52;59.13;99889.75;5051290;28;942;-57
2023/09/12 14:37:35;;;;;;;;;;;;;;;26.64;59.16;99897.03;5051486;28;863;-58
2023/09/12 14:40:04;;;;;;;;;;;;;;;26.74;58.33;99897.59;5051416;28;883;-58
2023/09/12 14:42:31;;;;;;;;;;;;;;;26.72;57.69;99897.31;5051378;28;1889;-58
2023/09/12 14:44:58;;;;;;;;;;;;;;;26.64;58.31;99890.59;5051347;28;815;-58
2023/09/12 14:47:27;;;;;;;;;;;;;;;26.77;58.17;99892.94;5051323;28;816;-58
2023/09/12 14:49:54;;;;;;;;;;;;;;;26.82;57.78;99895.78;5051340;28;858;-58
2023/09/12 14:52:21;;;;;;;;;;;;;;;26.63;56.94;99898.34;5051348;28;816;-57
2023/09/12 14:54:48;;;;;;;;;;;;;;;26.33;58.07;99905.69;5051221;28;889;-58
2023/09/12 14:57:15;;;;;;;;;;;;;;;26.07;58.42;99907.41;5051233;28;815;-58
2023/09/12 14:59:42;;;;;;;;;;;;;;;25.67;59.86;99911.28;5051269;28;820;-58
2023/09/12 15:02:09;;;;;;;;;;;;;;;25.31;60.78;99907.16;5051194;28;1886;-57
2023/09/12 15:04:36;;;;;;;;;;;;;;;25.02;61.91;99906.88;5051017;28;889;-57
2023/09/12 15:07:03;;;;;;;;;;;;;;;24.84;62.66;99912.91;5054449;28;883;-57
2023/09/12 15:09:31;;;;;;;;;;;;;;;24.68;62.98;99910.66;5054912;28;819;-57
2023/09/12 15:11:58;;;;;;;;;;;;;;;24.61;63.20;99918.31;5054912;28;1013;-58
2023/09/12 15:14:26;;;;;;;;;;;;;;;24.50;63.65;99914.59;5054554;28;1311;-59
2023/09/12 15:16:53;;;;;;;;;;;;;;;24.29;63.43;99914.59;5054692;28;867;-58